Terminal Aerodrome Forecast
Issued by NWS

Home | Current Version | Previous Version | Graphics & Text | Print | Product List | Glossary On
Versions: 1 2 3 4 5 6 7 8 9 10 11 12 13 14 15 16 17 18 19 20 21 22
457
FTUS43 KBIS 251128
TAFJMS
TAF
KJMS 251128Z 2512/2612 30011G18KT P6SM OVC025
     FM251700 31012G19KT P6SM BKN040
     FM252300 32008KT P6SM BKN080
     FM260600 22004KT P6SM SCT060=

USA.gov is the U.S. government's official web portal to all federal, state and local government web resources and services.